TPOK1: Kansas River, State-Line, KS

                                SHEF ID:       TPOK1     MARAIS DES CYGNES R NR KS-MO ST
STATION TYPE:

STAGE STAGE(2) RIV-FLOW BAT-LOAD
ft ft cfs volt
Ccp-Rev Ccp-Rev Ccp-Rev Ccp-Rev
(America/Chicago)
08/10 00:00 5.54 5.46 723 12.50
08/10 01:00 5.59 5.50 747 12.49
08/10 02:00 5.64 5.57 773 12.45
08/10 03:00 5.70 5.59 803 11.42
08/10 04:00 5.75 5.65 827 12.42
08/10 05:00 5.78 5.69 841 12.40
08/10 06:00 5.79 5.76 846 12.39
08/10 07:00 5.83 5.76 866 12.37
08/10 08:00 5.85 5.80 876 12.38
08/10 09:00 5.84 5.79 871 12.42
08/10 10:00 5.86 5.78 881 12.99
08/10 11:00 5.85 5.79 876 12.93
08/10 12:00 5.84 5.77 871 13.32
08/10 13:00 5.83 5.75 866 13.25
08/10 14:00 5.81 5.75 856 13.16
08/10 15:00 5.78 5.72 841 13.01
08/10 16:00 5.76 5.70 832 12.97
08/10 17:00 5.74 5.71 822 12.96
08/10 18:00 5.73 5.67 817 12.94
08/10 19:00 5.71 5.64 807 12.74
08/10 20:00 5.70 5.63 803 12.59
08/10 21:00 5.68 5.58 793 12.55
08/10 22:00 5.66 5.58 783 12.53
08/10 23:00 5.65 5.53 778 12.50
Data processed at Tue 11Aug2026 04:52 GMT

NOTICE: If you are parsing this page

Please convert to using our Data API. Starting early 2026 we will be migrating to: https://water.usace.army.mil with modern pages rendered in JavaScript. When this migration completes you will no longer be able to scrape this page! CWMSDataAPI (CDA)

Timeseries IDs (TSIDs)

TSIDs used from left to right in the data table
MKSL.Stage.Inst.1Hour.0.Ccp-Rev
MKSL.Stage-Alt.Inst.1Hour.0.Ccp-Rev
MKSL.Flow.Inst.1Hour.0.Ccp-Rev
MKSL.Volt-Battery Load.Inst.1Hour.0.Ccp-Rev

                            

All information presented herein is the property of the government of the United States of America and may be revised or deleted at any time without prior notice. Dissemination of this information without the expressed written consent of the Public Affairs Office, Tulsa District U.S. Army Corps of Engineers is strictly prohibited. These data are gathered electronically and, as presented, have NOT undergone any form of quality control. These data are NOT guaranteed to be valid or correct.